Menaam, Netherlands
Current Conditions -  °F | °C
As of 8:55 AM on Friday 24 Oct 2014 (Local Time) from EHLW Reporting Station
Overcast Overcast  
Wind Chill: 52°   Ceiling: 1200
Heat Index: 52°   Visibility: 6mi
Dew Point: 50°   Wind: 12mph
Humidity: 94%   Direction: 190°S
Pressure: 30.03"   Gusts: NA
Location:  53.22°N, 5.66°E
Report Text: EHLW 240655Z AUTO 19010KT 9999 OVC012 11/10 Q1017 REDZ GRN 20010KT 8000 BR FEW010 OVC016 TEMPO 3500 RADZ FEW005 SCT007 BKN010
Loading
Personal Weather Stations






























Interactive Weather Map
Tropical Storm Tracking
New forecast layout! Learn more

10-Day Weather Forecast

Advertisements
Track Severe Weather on mobile